createdAt,value
2017-06-04T00:01:01.129Z,75.70
2017-06-04T00:03:29.527Z,76.70
2017-06-04T00:05:57.892Z,77.00
2017-06-04T00:08:26.275Z,76.30
2017-06-04T00:10:54.635Z,77.40
2017-06-04T00:13:23.017Z,76.90
2017-06-04T00:15:51.380Z,77.10
2017-06-04T00:18:19.770Z,76.30
2017-06-04T00:20:48.136Z,77.40
2017-06-04T00:23:16.502Z,77.30
2017-06-04T00:25:44.886Z,77.60
2017-06-04T00:28:13.258Z,77.80
2017-06-04T00:30:41.639Z,78.60
2017-06-04T00:33:10.013Z,77.20
2017-06-04T00:35:38.392Z,76.90
2017-06-04T00:38:06.779Z,77.20
2017-06-04T00:40:35.192Z,78.40
2017-06-04T00:43:03.559Z,79.20
2017-06-04T00:45:31.921Z,78.80
2017-06-04T00:48:00.308Z,78.90
2017-06-04T00:50:28.667Z,78.70
2017-06-04T00:52:57.055Z,78.20
2017-06-04T00:55:25.427Z,78.40
2017-06-04T00:57:53.810Z,79.10
2017-06-04T01:00:22.181Z,79.70
2017-06-04T01:02:50.575Z,80.30
2017-06-04T01:05:18.939Z,80.30
2017-06-04T01:07:47.305Z,80.00
2017-06-04T01:10:15.731Z,79.80
2017-06-04T01:12:44.098Z,79.50
2017-06-04T01:15:12.480Z,79.40
2017-06-04T01:17:40.842Z,79.20
2017-06-04T01:20:09.226Z,79.10
2017-06-04T01:22:37.591Z,78.90
2017-06-04T01:25:06.012Z,79.20
2017-06-04T01:27:34.385Z,79.40
2017-06-04T01:30:02.750Z,79.80
2017-06-04T01:32:31.139Z,80.00
2017-06-04T01:34:59.500Z,80.10
2017-06-04T01:37:27.887Z,80.20
2017-06-04T01:39:56.256Z,80.00
2017-06-04T01:42:24.640Z,80.20
2017-06-04T01:44:53.087Z,81.00
2017-06-04T01:47:21.479Z,81.30
2017-06-04T01:49:49.843Z,81.50
2017-06-04T01:52:18.226Z,81.10
2017-06-04T01:54:46.612Z,80.90
2017-06-04T01:57:14.213Z,80.80
2017-06-04T01:59:42.596Z,80.80
2017-06-04T02:02:10.961Z,80.70
2017-06-04T02:04:39.356Z,80.80
2017-06-04T02:07:07.723Z,81.50
2017-06-04T02:09:36.101Z,81.80
2017-06-04T02:12:04.488Z,81.40
2017-06-04T02:14:32.907Z,81.00
2017-06-04T02:17:01.286Z,81.00
2017-06-04T02:19:29.664Z,81.60
2017-06-04T02:21:58.051Z,81.60
2017-06-04T02:24:26.427Z,81.90
2017-06-04T02:26:54.052Z,81.90
2017-06-04T02:29:22.414Z,81.90
2017-06-04T02:31:50.772Z,81.90
2017-06-04T02:34:19.160Z,82.20
2017-06-04T02:36:47.520Z,82.10
2017-06-04T02:39:15.905Z,82.50
2017-06-04T02:41:44.268Z,82.60
2017-06-04T02:44:12.648Z,82.40
2017-06-04T02:46:41.009Z,82.40
2017-06-04T02:49:09.417Z,82.60
2017-06-04T02:51:37.781Z,82.70
2017-06-04T02:54:06.144Z,82.80
2017-06-04T02:56:34.538Z,83.10
2017-06-04T02:59:02.128Z,83.10
2017-06-04T03:01:30.514Z,82.40
2017-06-04T03:03:58.876Z,82.20
2017-06-04T03:06:27.289Z,82.60
2017-06-04T03:08:55.704Z,83.10
2017-06-04T03:11:24.059Z,83.30
2017-06-04T03:13:52.440Z,83.30
2017-06-04T03:16:20.804Z,83.00
2017-06-04T03:18:49.184Z,82.40
2017-06-04T03:21:17.540Z,81.50
2017-06-04T03:23:45.922Z,80.80
2017-06-04T03:26:14.290Z,80.60
2017-06-04T03:28:42.676Z,80.70
2017-06-04T03:31:11.041Z,80.60
2017-06-04T03:33:39.397Z,80.70
2017-06-04T03:36:07.019Z,80.80
2017-06-04T03:38:35.382Z,81.00
2017-06-04T03:41:03.770Z,81.10
2017-06-04T03:43:32.134Z,80.40
2017-06-04T03:46:00.520Z,81.10
2017-06-04T03:48:28.885Z,80.70
2017-06-04T03:50:57.298Z,80.70
2017-06-04T03:53:25.672Z,80.90
2017-06-04T03:55:54.044Z,80.80
2017-06-04T03:58:22.435Z,80.70
2017-06-04T04:00:50.032Z,80.70
2017-06-04T04:03:18.506Z,80.60
2017-06-04T04:05:46.868Z,80.20
2017-06-04T04:08:15.371Z,80.40
2017-06-04T04:10:43.737Z,80.20
2017-06-04T04:13:12.245Z,80.30
2017-06-04T04:15:40.608Z,80.60
2017-06-04T04:18:08.977Z,81.20
2017-06-04T04:20:37.373Z,81.90
2017-06-04T04:23:05.824Z,82.50
2017-06-04T04:25:34.215Z,82.80
2017-06-04T04:28:02.586Z,82.70
2017-06-04T04:30:31.900Z,82.70
2017-06-04T04:33:00.271Z,83.00
2017-06-04T04:35:28.691Z,82.90
2017-06-04T04:37:57.059Z,83.10
2017-06-04T04:40:25.447Z,82.80
2017-06-04T04:42:53.837Z,82.50
2017-06-04T04:45:22.215Z,82.60
2017-06-04T04:47:50.598Z,83.00
2017-06-04T04:50:18.977Z,82.90
2017-06-04T04:52:47.377Z,83.00
2017-06-04T04:55:15.747Z,82.90
2017-06-04T04:57:44.206Z,82.80
2017-06-04T05:00:11.808Z,82.80
2017-06-04T05:02:40.205Z,82.00
2017-06-04T05:05:08.598Z,82.00
2017-06-04T05:07:36.995Z,82.00
2017-06-04T05:10:05.407Z,81.50
2017-06-04T05:12:33.832Z,81.00
2017-06-04T05:15:02.227Z,80.50
2017-06-04T05:17:30.606Z,80.30
2017-06-04T05:19:59.024Z,80.10
2017-06-04T05:22:27.390Z,79.90
2017-06-04T05:24:55.768Z,79.70
2017-06-04T05:27:40.950Z,79.30
2017-06-04T05:30:09.320Z,78.90
2017-06-04T05:32:37.711Z,78.20
2017-06-04T05:35:06.075Z,77.90
2017-06-04T05:37:34.544Z,77.50
2017-06-04T05:40:02.908Z,77.10
2017-06-04T05:42:31.308Z,76.80
2017-06-04T05:44:59.688Z,76.80
2017-06-04T05:47:28.056Z,77.00
2017-06-04T05:49:56.456Z,76.90
2017-06-04T05:52:24.091Z,76.80
2017-06-04T05:54:52.477Z,76.80
2017-06-04T05:57:20.842Z,76.40
2017-06-04T05:59:49.228Z,76.10
2017-06-04T06:02:17.601Z,75.60
2017-06-04T06:04:45.992Z,75.50
2017-06-04T06:07:14.361Z,76.10
2017-06-04T06:09:42.764Z,76.30
2017-06-04T06:12:11.139Z,76.10
2017-06-04T06:14:39.502Z,76.00
2017-06-04T06:17:07.887Z,76.10
2017-06-04T06:19:36.252Z,76.00
2017-06-04T06:22:04.645Z,75.10
2017-06-04T06:24:33.016Z,74.00
2017-06-04T06:27:01.413Z,73.20
2017-06-04T06:29:29.775Z,73.00
2017-06-04T06:31:58.188Z,72.30
2017-06-04T06:34:26.599Z,71.80
2017-06-04T06:36:54.962Z,72.00
2017-06-04T06:39:23.380Z,71.60
2017-06-04T06:41:51.745Z,70.70
2017-06-04T06:44:20.131Z,69.90
2017-06-04T06:46:48.504Z,69.60
2017-06-04T06:49:16.912Z,69.50
2017-06-04T06:51:45.279Z,68.50
2017-06-04T06:54:13.745Z,68.30
2017-06-04T06:56:42.135Z,67.70
2017-06-04T06:59:10.507Z,67.40
2017-06-04T07:01:38.901Z,66.40
2017-06-04T07:04:07.352Z,65.10
2017-06-04T07:06:35.743Z,65.30
2017-06-04T07:09:04.111Z,63.80
2017-06-04T07:11:32.504Z,63.00
2017-06-04T07:14:00.874Z,62.30
2017-06-04T07:16:29.237Z,61.90
2017-06-04T07:18:57.632Z,61.10
2017-06-04T07:21:25.991Z,61.50
2017-06-04T07:23:54.383Z,61.10
2017-06-04T07:26:22.756Z,60.30
2017-06-04T07:28:51.138Z,60.80
2017-06-04T07:31:19.505Z,60.60
2017-06-04T07:33:47.908Z,60.10
2017-06-04T07:36:16.273Z,60.50
2017-06-04T07:38:44.640Z,59.70
2017-06-04T07:41:13.032Z,59.00
2017-06-04T07:43:41.395Z,58.40
2017-06-04T07:46:09.786Z,58.30
2017-06-04T07:48:38.152Z,58.20
2017-06-04T07:51:06.546Z,57.40
2017-06-04T07:53:34.913Z,56.40
2017-06-04T07:56:03.303Z,56.10
2017-06-04T07:58:31.666Z,55.80
2017-06-04T08:01:00.056Z,54.90
2017-06-04T08:03:28.431Z,54.80
2017-06-04T08:05:56.826Z,55.30
2017-06-04T08:08:25.194Z,55.50
2017-06-04T08:10:53.583Z,53.70
2017-06-04T08:13:21.942Z,53.10
2017-06-04T08:15:50.335Z,54.20
2017-06-04T08:18:18.700Z,55.00
2017-06-04T08:20:47.082Z,55.20
2017-06-04T08:23:15.443Z,55.60
2017-06-04T08:25:43.838Z,56.00
2017-06-04T08:28:12.198Z,55.50
2017-06-04T08:30:40.599Z,54.90
2017-06-04T08:33:08.962Z,53.80
2017-06-04T08:35:37.350Z,53.90
2017-06-04T08:38:05.711Z,53.80
2017-06-04T08:40:34.112Z,54.20
2017-06-04T08:43:02.469Z,53.70
2017-06-04T08:45:30.891Z,52.30
2017-06-04T08:47:59.250Z,51.90
2017-06-04T08:50:27.612Z,51.40
2017-06-04T08:52:56.003Z,51.80
2017-06-04T08:55:24.363Z,52.30
2017-06-04T08:57:52.767Z,51.70
2017-06-04T09:00:20.382Z,51.70
2017-06-04T09:02:48.768Z,51.60
2017-06-04T09:05:17.124Z,50.60
2017-06-04T09:07:45.523Z,50.10
2017-06-04T09:10:13.914Z,50.00
2017-06-04T09:12:42.315Z,50.40
2017-06-04T09:15:10.678Z,48.60
2017-06-04T09:17:38.363Z,48.60
2017-06-04T09:20:06.723Z,47.90
2017-06-04T09:22:35.141Z,48.10
2017-06-04T09:25:03.503Z,48.30
2017-06-04T09:27:31.861Z,49.10
2017-06-04T09:30:00.242Z,49.20
2017-06-04T09:32:28.618Z,47.40
2017-06-04T09:34:57.004Z,47.60
2017-06-04T09:37:25.377Z,47.90
2017-06-04T09:39:53.759Z,46.60
2017-06-04T09:42:22.125Z,48.00
2017-06-04T09:44:50.546Z,48.10
2017-06-04T09:47:18.899Z,46.40
2017-06-04T09:49:47.258Z,44.30
2017-06-04T09:52:15.643Z,44.50
2017-06-04T09:54:44.166Z,44.50
2017-06-04T09:57:12.564Z,45.00
2017-06-04T09:59:40.916Z,45.20
2017-06-04T10:02:09.298Z,44.30
2017-06-04T10:04:37.752Z,43.70
2017-06-04T10:07:10.164Z,43.30
2017-06-04T10:09:38.592Z,43.20
2017-06-04T10:12:06.957Z,43.00
2017-06-04T10:14:35.352Z,42.90
2017-06-04T10:17:03.723Z,43.60
2017-06-04T10:19:32.108Z,44.30
2017-06-04T10:22:00.472Z,44.60
2017-06-04T10:24:28.859Z,42.40
2017-06-04T10:26:57.236Z,43.10
2017-06-04T10:29:25.638Z,43.00
2017-06-04T10:31:53.999Z,44.10
2017-06-04T10:34:22.355Z,44.40
2017-06-04T10:36:49.985Z,44.40
2017-06-04T10:39:18.345Z,42.60
2017-06-04T10:41:45.974Z,42.60
2017-06-04T10:44:14.360Z,42.00
2017-06-04T10:46:42.748Z,43.20
2017-06-04T10:49:11.126Z,43.70
2017-06-04T10:51:39.539Z,43.70
2017-06-04T10:54:07.895Z,44.20
2017-06-04T10:56:36.245Z,44.00
2017-06-04T10:59:04.652Z,43.30
2017-06-04T11:01:33.019Z,43.30
2017-06-04T11:04:01.410Z,43.00
2017-06-04T11:06:29.776Z,41.30
2017-06-04T11:08:58.164Z,40.50
2017-06-04T11:11:26.527Z,38.50
2017-06-04T11:13:54.958Z,38.60
2017-06-04T11:16:23.318Z,38.60
2017-06-04T11:18:51.686Z,38.30
2017-06-04T11:21:20.072Z,38.70
2017-06-04T11:23:48.431Z,39.50
2017-06-04T11:26:16.908Z,40.20
2017-06-04T11:28:45.263Z,39.60
2017-06-04T11:31:13.672Z,38.70
2017-06-04T11:33:42.032Z,37.10
2017-06-04T11:36:09.656Z,37.00
2017-06-04T11:38:38.024Z,36.60
2017-06-04T11:41:06.385Z,38.50
2017-06-04T11:43:34.803Z,39.40
2017-06-04T11:46:03.215Z,40.10
2017-06-04T11:48:31.600Z,38.50
2017-06-04T11:50:59.955Z,38.00
2017-06-04T11:53:28.343Z,37.50
2017-06-04T11:55:56.727Z,37.60
2017-06-04T11:58:25.128Z,37.60
2017-06-04T12:00:53.487Z,37.80
2017-06-04T12:03:21.872Z,36.80
2017-06-04T12:05:50.233Z,35.70
2017-06-04T12:08:18.620Z,34.70
2017-06-04T12:10:46.976Z,34.30
2017-06-04T12:13:15.358Z,33.80
2017-06-04T12:15:43.733Z,33.70
2017-06-04T12:18:12.121Z,33.40
2017-06-04T12:20:40.587Z,33.00
2017-06-04T12:23:11.087Z,34.30
2017-06-04T12:25:38.713Z,34.30
2017-06-04T12:28:07.104Z,33.40
2017-06-04T12:30:35.496Z,32.20
2017-06-04T12:33:03.883Z,32.60
2017-06-04T12:35:32.246Z,34.50
2017-06-04T12:38:00.632Z,34.90
2017-06-04T12:40:28.247Z,34.90
2017-06-04T12:42:57.207Z,34.60
2017-06-04T12:45:25.563Z,35.80
2017-06-04T12:47:53.943Z,36.00
2017-06-04T12:50:22.367Z,36.00
2017-06-04T12:52:50.752Z,35.60
2017-06-04T12:55:19.128Z,35.50
2017-06-04T12:57:47.511Z,34.70
2017-06-04T13:00:15.895Z,34.80
2017-06-04T13:02:44.288Z,34.70
2017-06-04T13:05:12.664Z,35.30
2017-06-04T13:07:41.074Z,35.70
2017-06-04T13:10:08.687Z,35.50
2017-06-04T13:12:37.075Z,34.10
2017-06-04T13:15:05.478Z,34.80
2017-06-04T13:17:33.863Z,35.60
2017-06-04T13:20:02.225Z,36.20
2017-06-04T13:22:30.615Z,36.20
2017-06-04T13:24:58.981Z,36.60
2017-06-04T13:27:27.375Z,37.60
2017-06-04T13:29:55.816Z,38.20
2017-06-04T13:32:24.196Z,37.90
2017-06-04T13:34:52.574Z,37.20
2017-06-04T13:37:20.980Z,36.40
2017-06-04T13:39:49.336Z,35.50
2017-06-04T13:42:17.695Z,34.80
2017-06-04T13:44:50.119Z,34.20
2017-06-04T13:47:18.484Z,34.20
2017-06-04T13:49:46.867Z,35.10
2017-06-04T13:52:15.228Z,35.90
2017-06-04T13:54:43.622Z,36.70
2017-06-04T13:57:11.985Z,37.50
2017-06-04T13:59:39.689Z,37.50
2017-06-04T14:02:08.043Z,37.60
2017-06-04T14:04:36.427Z,37.40
2017-06-04T14:07:04.784Z,37.20
2017-06-04T14:09:33.178Z,37.30
2017-06-04T14:12:01.580Z,37.60
2017-06-04T14:14:30.035Z,38.90
2017-06-04T14:16:58.396Z,39.60
2017-06-04T14:19:26.792Z,40.60
2017-06-04T14:21:55.211Z,41.40
2017-06-04T14:24:23.658Z,42.00
2017-06-04T14:26:52.042Z,42.50
2017-06-04T14:29:20.522Z,43.00
2017-06-04T14:31:48.962Z,43.70
2017-06-04T14:34:17.348Z,44.70
2017-06-04T14:36:45.708Z,45.00
2017-06-04T14:39:14.102Z,45.40
2017-06-04T14:41:42.480Z,46.50
2017-06-04T14:44:10.868Z,46.70
2017-06-04T14:46:39.236Z,46.80
2017-06-04T14:49:07.629Z,47.50
2017-06-04T14:51:36.003Z,48.50
2017-06-04T14:54:04.387Z,49.20
2017-06-04T14:56:32.764Z,50.00
2017-06-04T14:59:01.142Z,50.00
2017-06-04T15:01:29.508Z,49.70
2017-06-04T15:03:57.891Z,50.20
2017-06-04T15:06:26.258Z,50.90
2017-06-04T15:08:54.638Z,51.10
2017-06-04T15:11:23.024Z,51.00
2017-06-04T15:13:51.414Z,50.70
2017-06-04T15:16:19.780Z,50.50
2017-06-04T15:18:48.172Z,49.40
2017-06-04T15:21:16.538Z,49.00
2017-06-04T15:23:44.920Z,48.20
2017-06-04T15:26:13.292Z,48.20
2017-06-04T15:28:41.669Z,48.30
2017-06-04T15:31:10.052Z,47.60
2017-06-04T15:33:38.451Z,46.70
2017-06-04T15:36:06.821Z,46.70
2017-06-04T15:38:35.235Z,47.40
2017-06-04T15:41:02.837Z,46.80
2017-06-04T15:43:31.228Z,47.40
2017-06-04T15:45:59.607Z,46.10
2017-06-04T15:48:27.988Z,45.20
2017-06-04T15:50:56.370Z,44.50
2017-06-04T15:53:24.738Z,44.00
2017-06-04T15:55:53.116Z,43.60
2017-06-04T15:58:21.495Z,44.00
2017-06-04T16:00:49.885Z,44.20
2017-06-04T16:03:18.267Z,43.70
2017-06-04T16:05:46.630Z,44.00
2017-06-04T16:08:15.031Z,44.50
2017-06-04T16:10:43.396Z,44.90
2017-06-04T16:13:11.777Z,44.70
2017-06-04T16:15:40.147Z,43.90
2017-06-04T16:18:08.547Z,43.50
2017-06-04T16:20:36.907Z,44.00
2017-06-04T16:23:05.291Z,44.50
2017-06-04T16:25:33.679Z,44.50
2017-06-04T16:28:02.055Z,44.80
2017-06-04T16:30:30.430Z,45.20
2017-06-04T16:32:58.787Z,46.10
2017-06-04T16:35:27.199Z,45.60
2017-06-04T16:37:55.558Z,46.20
2017-06-04T16:40:23.912Z,46.40
2017-06-04T16:42:52.295Z,46.60
2017-06-04T16:45:20.659Z,46.90
2017-06-04T16:47:49.052Z,47.90
2017-06-04T16:50:17.408Z,47.70
2017-06-04T16:52:45.769Z,48.20
2017-06-04T16:55:14.152Z,48.50
2017-06-04T16:57:42.506Z,48.70
2017-06-04T17:00:10.922Z,49.20
2017-06-04T17:02:39.294Z,49.70
2017-06-04T17:05:07.653Z,50.20
2017-06-04T17:07:36.035Z,50.40
2017-06-04T17:10:04.409Z,50.60
2017-06-04T17:12:32.819Z,50.30
2017-06-04T17:15:01.178Z,50.40
2017-06-04T17:17:29.815Z,50.50
2017-06-04T17:19:58.191Z,50.40
2017-06-04T17:22:26.548Z,50.70
2017-06-04T17:24:54.964Z,50.60
2017-06-04T17:27:23.334Z,50.60
2017-06-04T17:29:51.706Z,50.40
2017-06-04T17:32:20.088Z,50.30
2017-06-04T17:34:48.483Z,50.30
2017-06-04T17:37:16.861Z,50.30
2017-06-04T17:39:45.248Z,50.50
2017-06-04T17:42:13.666Z,50.70
2017-06-04T17:44:42.056Z,51.00
2017-06-04T17:47:10.424Z,51.60
2017-06-04T17:49:38.883Z,51.60
2017-06-04T17:52:07.246Z,51.60
2017-06-04T17:54:35.628Z,51.80
2017-06-04T17:57:03.224Z,51.80
2017-06-04T17:59:31.738Z,52.40
2017-06-04T18:02:00.098Z,53.00
2017-06-04T18:04:28.499Z,52.90
2017-06-04T18:06:57.054Z,53.40
2017-06-04T18:09:25.431Z,54.10
2017-06-04T18:11:53.832Z,54.10
2017-06-04T18:14:22.190Z,53.80
2017-06-04T18:16:50.691Z,53.50
2017-06-04T18:19:18.295Z,53.40
2017-06-04T18:21:46.054Z,51.90
2017-06-04T18:24:14.436Z,48.60
2017-06-04T18:26:42.034Z,48.60
2017-06-04T18:29:10.500Z,48.90
2017-06-04T18:31:38.870Z,48.50
2017-06-04T18:34:07.317Z,49.20
2017-06-04T18:36:35.695Z,49.90
2017-06-04T18:39:04.121Z,51.00
2017-06-04T18:41:32.486Z,52.10
2017-06-04T18:44:00.937Z,53.00
2017-06-04T18:46:29.320Z,53.80
2017-06-04T18:48:57.762Z,54.40
2017-06-04T18:51:26.226Z,55.20
2017-06-04T18:53:54.618Z,56.10
2017-06-04T18:56:23.000Z,56.50
2017-06-04T18:58:51.390Z,56.80
2017-06-04T19:01:19.830Z,57.20
2017-06-04T19:03:48.219Z,57.70
2017-06-04T19:06:16.695Z,58.20
2017-06-04T19:08:45.056Z,58.60
2017-06-04T19:11:13.558Z,59.00
2017-06-04T19:13:41.939Z,59.60
2017-06-04T19:16:10.305Z,59.90
2017-06-04T19:18:38.711Z,60.30
2017-06-04T19:21:07.084Z,60.80
2017-06-04T19:23:35.483Z,61.50
2017-06-04T19:26:03.873Z,61.60
2017-06-04T19:28:32.304Z,62.10
2017-06-04T19:31:00.689Z,62.30
2017-06-04T19:33:29.099Z,63.00
2017-06-04T19:35:57.516Z,63.50
2017-06-04T19:38:25.903Z,64.50
2017-06-04T19:40:54.263Z,65.70
2017-06-04T19:43:22.695Z,65.80
2017-06-04T19:45:51.086Z,66.20
2017-06-04T19:48:19.493Z,66.90
2017-06-04T19:50:47.854Z,67.30
2017-06-04T19:53:16.267Z,67.60
2017-06-04T19:55:44.679Z,68.30
2017-06-04T19:58:13.058Z,68.40
2017-06-04T20:00:41.494Z,69.30
2017-06-04T20:03:09.887Z,70.20
2017-06-04T20:05:38.316Z,71.80
2017-06-04T20:08:06.676Z,71.90
2017-06-04T20:10:35.062Z,72.70
2017-06-04T20:13:03.427Z,72.80
2017-06-04T20:15:31.813Z,72.60
2017-06-04T20:18:00.179Z,72.60
2017-06-04T20:20:28.566Z,72.70
2017-06-04T20:22:56.945Z,73.40
2017-06-04T20:25:25.322Z,73.90
2017-06-04T20:27:53.708Z,73.90
2017-06-04T20:30:22.078Z,74.00
2017-06-04T20:32:50.476Z,74.00
2017-06-04T20:35:18.860Z,74.30
2017-06-04T20:37:47.251Z,74.20
2017-06-04T20:40:15.617Z,74.60
2017-06-04T20:42:44.047Z,74.60
2017-06-04T20:45:12.417Z,74.40
2017-06-04T20:47:40.793Z,74.20
2017-06-04T20:50:09.187Z,74.70
2017-06-04T20:52:37.552Z,74.90
2017-06-04T20:55:05.947Z,75.10
2017-06-04T20:57:34.318Z,75.30
2017-06-04T21:00:02.728Z,75.20
2017-06-04T21:02:31.106Z,75.40
2017-06-04T21:04:59.499Z,75.90
2017-06-04T21:07:27.860Z,76.00
2017-06-04T21:09:56.295Z,76.30
2017-06-04T21:12:24.717Z,76.60
2017-06-04T21:14:53.085Z,76.50
2017-06-04T21:17:21.475Z,76.50
2017-06-04T21:19:49.841Z,76.50
2017-06-04T21:22:19.231Z,76.70
2017-06-04T21:24:47.603Z,76.60
2017-06-04T21:27:16.093Z,76.40
2017-06-04T21:29:44.467Z,76.50
2017-06-04T21:32:12.957Z,76.80
2017-06-04T21:34:41.325Z,76.70
2017-06-04T21:37:09.692Z,76.70
2017-06-04T21:39:38.078Z,76.60
2017-06-04T21:42:06.441Z,76.40
2017-06-04T21:44:34.829Z,76.30
2017-06-04T21:47:03.191Z,76.30
2017-06-04T21:49:31.571Z,76.20
2017-06-04T21:51:59.968Z,76.00
2017-06-04T21:54:28.365Z,75.90
2017-06-04T21:56:56.807Z,75.90
2017-06-04T21:59:25.224Z,75.50
2017-06-04T22:01:53.596Z,75.40
2017-06-04T22:04:21.970Z,75.20
2017-06-04T22:06:50.363Z,75.00
2017-06-04T22:09:18.729Z,74.90
2017-06-04T22:11:47.130Z,74.90
2017-06-04T22:14:15.523Z,75.00
2017-06-04T22:16:43.906Z,75.10
2017-06-04T22:19:12.271Z,75.10
2017-06-04T22:21:40.755Z,75.00
2017-06-04T22:24:09.154Z,75.00
2017-06-04T22:26:37.527Z,75.00
2017-06-04T22:29:05.935Z,75.10
2017-06-04T22:31:34.319Z,75.20
2017-06-04T22:34:02.701Z,75.20
2017-06-04T22:36:31.075Z,75.40
2017-06-04T22:38:59.460Z,76.60
2017-06-04T22:41:27.845Z,76.30
2017-06-04T22:43:56.251Z,76.60
2017-06-04T22:46:24.617Z,76.80
2017-06-04T22:48:53.018Z,77.00
2017-06-04T22:51:21.715Z,77.60
2017-06-04T22:53:50.081Z,77.50
2017-06-04T22:56:18.477Z,77.90
2017-06-04T22:58:46.848Z,78.40
2017-06-04T23:01:15.232Z,78.70
2017-06-04T23:03:43.599Z,78.50
2017-06-04T23:06:11.985Z,78.10
2017-06-04T23:08:39.660Z,78.10
2017-06-04T23:11:08.047Z,77.80
2017-06-04T23:13:36.438Z,78.10
2017-06-04T23:16:04.071Z,78.10
2017-06-04T23:18:32.438Z,78.50
2017-06-04T23:21:00.802Z,78.50
2017-06-04T23:23:29.341Z,78.40
2017-06-04T23:25:57.712Z,78.40
2017-06-04T23:28:26.129Z,78.70
2017-06-04T23:30:54.491Z,78.90
2017-06-04T23:33:22.881Z,78.90
2017-06-04T23:35:51.248Z,79.10
2017-06-04T23:38:19.635Z,79.20
2017-06-04T23:40:48.004Z,79.80
2017-06-04T23:43:16.391Z,79.30
2017-06-04T23:45:43.992Z,79.20
2017-06-04T23:48:12.409Z,79.20
2017-06-04T23:50:40.777Z,79.60
2017-06-04T23:53:09.166Z,79.90
2017-06-04T23:55:37.558Z,79.90
2017-06-04T23:58:05.923Z,80.60
